createdAt,value
2018-07-27T14:25:29.196Z,34.00
2018-07-27T14:27:57.688Z,33.80
2018-07-27T14:30:26.149Z,33.80
2018-07-27T14:32:54.991Z,33.60
2018-07-27T14:37:51.521Z,33.30
2018-07-27T14:40:19.971Z,33.20
2018-07-27T14:42:48.502Z,33.30
2018-07-27T14:45:17.015Z,33.40
2018-07-27T14:47:45.887Z,33.40
2018-07-27T14:50:14.403Z,33.20
2018-07-27T14:52:42.832Z,33.10
2018-07-27T14:55:11.152Z,33.00
2018-07-27T14:57:39.553Z,32.90
2018-07-27T15:00:08.080Z,32.80
2018-07-27T15:02:36.491Z,32.60
2018-07-27T15:05:04.966Z,32.70
2018-07-27T15:07:33.287Z,32.80
2018-07-27T15:10:01.743Z,32.90
2018-07-27T15:12:30.338Z,33.00
2018-07-27T15:18:34.461Z,33.10
2018-07-27T15:21:02.869Z,33.10
2018-07-27T15:23:31.492Z,33.20
2018-07-27T15:25:59.913Z,33.20
2018-07-27T15:28:28.355Z,33.20
2018-07-27T15:30:57.674Z,33.20
2018-07-27T15:33:26.288Z,33.20
2018-07-27T15:35:55.226Z,33.20
2018-07-27T15:38:24.204Z,33.20
2018-07-27T15:40:52.595Z,33.10
2018-07-27T15:43:21.641Z,33.10
2018-07-27T15:45:50.044Z,33.10
2018-07-27T15:48:18.558Z,33.10
2018-07-27T15:50:47.064Z,33.10
2018-07-27T15:53:15.514Z,33.10
2018-07-27T15:55:43.922Z,33.10
2018-07-27T15:58:12.352Z,33.10
2018-07-27T16:00:40.733Z,33.10
2018-07-27T16:03:09.634Z,33.10
2018-07-27T16:05:38.026Z,33.10
2018-07-27T16:08:06.785Z,33.00
2018-07-27T16:10:35.452Z,32.90
2018-07-27T16:13:03.783Z,32.90
2018-07-27T16:15:32.156Z,32.90
2018-07-27T16:18:00.707Z,32.90
2018-07-27T16:20:29.162Z,32.90
2018-07-27T16:22:57.561Z,32.90
2018-07-27T16:25:26.111Z,32.90
2018-07-27T16:27:54.807Z,32.90
2018-07-27T16:30:23.352Z,32.90
2018-07-27T16:32:51.856Z,32.90
2018-07-27T16:35:20.244Z,32.80
2018-07-27T16:37:48.600Z,32.80
2018-07-27T16:40:17.071Z,32.80
2018-07-27T16:42:45.465Z,32.80
2018-07-27T16:45:13.880Z,32.80
2018-07-27T16:47:42.297Z,32.70
2018-07-27T16:50:10.675Z,32.70
2018-07-27T16:52:39.015Z,32.70
2018-07-27T16:55:07.421Z,32.80
2018-07-27T16:57:35.818Z,32.80
2018-07-27T17:00:04.280Z,32.80
2018-07-27T17:02:32.655Z,32.80
2018-07-27T17:05:01.035Z,32.90
2018-07-27T17:07:29.349Z,32.90
2018-07-27T17:09:58.071Z,32.80
2018-07-27T17:12:26.471Z,32.70
2018-07-27T17:14:54.932Z,32.70
2018-07-27T17:17:23.375Z,32.60
2018-07-27T17:19:51.772Z,32.60
2018-07-27T17:22:20.247Z,32.50
2018-07-27T17:24:48.713Z,32.50
2018-07-27T17:27:17.174Z,32.50
2018-07-27T17:29:46.324Z,32.50
2018-07-27T17:32:14.748Z,32.50
2018-07-27T17:34:43.247Z,32.50
2018-07-27T17:37:11.751Z,32.40
2018-07-27T17:42:08.290Z,32.40
2018-07-27T17:44:36.764Z,32.40
2018-07-27T17:47:06.383Z,32.30
2018-07-27T17:49:34.839Z,32.30
2018-07-27T17:52:04.406Z,32.30
2018-07-27T17:54:32.792Z,32.30
2018-07-27T17:57:01.316Z,32.30
2018-07-27T17:59:29.716Z,32.30
2018-07-27T18:01:58.092Z,32.20
2018-07-27T18:04:26.647Z,32.20
2018-07-27T18:06:55.099Z,32.20
2018-07-27T18:09:23.600Z,32.10
2018-07-27T18:11:52.114Z,32.10
2018-07-27T18:14:20.574Z,32.10
2018-07-27T18:16:49.041Z,32.00
2018-07-27T18:19:17.472Z,32.00
2018-07-27T18:21:45.961Z,32.00
2018-07-27T18:29:10.566Z,31.90
2018-07-27T18:31:39.024Z,31.90
2018-07-27T18:34:08.101Z,31.80
2018-07-27T18:36:37.292Z,31.90
2018-07-27T18:39:09.053Z,31.90
2018-07-27T18:41:38.472Z,31.80
2018-07-27T18:44:07.236Z,31.80
2018-07-27T18:46:36.874Z,31.70
2018-07-27T18:49:05.858Z,31.70
2018-07-27T18:51:36.053Z,31.60
2018-07-27T18:54:05.895Z,31.60
2018-07-27T18:56:35.248Z,31.50
2018-07-27T18:59:04.740Z,31.40
2018-07-27T19:01:34.028Z,31.30
2018-07-27T19:04:03.219Z,31.30
2018-07-27T19:06:33.089Z,31.20
2018-07-27T19:09:02.722Z,31.00
2018-07-27T19:11:33.424Z,30.90
2018-07-27T19:14:04.181Z,30.80
2018-07-27T19:19:03.693Z,30.60
2018-07-27T19:21:32.957Z,30.50
2018-07-27T19:24:02.341Z,30.40
2018-07-27T19:26:31.736Z,30.30
2018-07-27T19:29:07.232Z,30.10
2018-07-27T19:31:36.420Z,30.10
2018-07-27T19:34:08.526Z,30.00
2018-07-27T19:36:37.692Z,29.90
2018-07-27T19:39:08.935Z,29.90
2018-07-27T19:41:38.231Z,29.80
2018-07-27T19:44:06.826Z,29.70
2018-07-27T19:46:35.241Z,29.60
2018-07-27T19:49:03.803Z,29.50
2018-07-27T19:51:32.184Z,29.40
2018-07-27T19:54:00.682Z,29.40
2018-07-27T19:56:29.568Z,29.30
2018-07-27T19:58:58.092Z,29.30
2018-07-27T20:01:26.630Z,29.30
2018-07-27T20:03:55.411Z,29.20
2018-07-27T20:06:23.975Z,29.20
2018-07-27T20:08:52.488Z,29.10
2018-07-27T20:11:20.950Z,29.10
2018-07-27T20:13:50.123Z,29.00
2018-07-27T20:16:18.573Z,29.00
2018-07-27T20:18:47.445Z,28.90
2018-07-27T20:21:15.938Z,28.80
2018-07-27T20:23:44.542Z,28.70
2018-07-27T20:26:12.918Z,28.60
2018-07-27T20:28:41.720Z,28.60
2018-07-27T20:31:10.214Z,28.50
2018-07-27T20:33:38.625Z,28.50
2018-07-27T20:36:06.976Z,28.40
2018-07-27T20:38:35.457Z,28.30
2018-07-27T20:41:03.941Z,28.30
2018-07-27T20:43:32.360Z,28.20
2018-07-27T20:46:01.602Z,28.10
2018-07-27T20:48:30.271Z,28.00
2018-07-27T20:50:58.976Z,27.90
2018-07-27T20:53:27.433Z,28.00
2018-07-27T20:55:56.447Z,27.90
2018-07-27T20:58:25.185Z,27.90
2018-07-27T21:00:54.017Z,27.90
2018-07-27T21:03:22.981Z,27.80
2018-07-27T21:05:52.048Z,27.80
2018-07-27T21:08:20.973Z,27.70
2018-07-27T21:10:49.404Z,27.70
2018-07-27T21:13:18.395Z,27.60
2018-07-27T21:15:47.225Z,27.60
2018-07-27T21:18:15.792Z,27.60
2018-07-27T21:20:44.331Z,27.50
2018-07-27T21:23:12.759Z,27.50
2018-07-27T21:25:42.357Z,27.40
2018-07-27T21:28:11.135Z,27.30
2018-07-27T21:30:39.891Z,27.30
2018-07-27T21:33:08.385Z,27.20
2018-07-27T21:35:38.177Z,27.20
2018-07-27T21:38:07.194Z,27.10
2018-07-27T21:40:36.033Z,27.10
2018-07-27T21:43:04.894Z,27.10
2018-07-27T21:45:33.716Z,27.10
2018-07-27T21:48:02.571Z,27.00
2018-07-27T21:50:31.450Z,27.00
2018-07-27T21:53:00.284Z,26.90
2018-07-27T21:55:28.772Z,26.80
2018-07-27T21:57:57.276Z,26.80
2018-07-27T22:00:25.806Z,26.80
2018-07-27T22:02:54.736Z,26.80
2018-07-27T22:05:23.262Z,26.70
2018-07-27T22:07:54.179Z,26.70
2018-07-27T22:10:24.232Z,26.60
2018-07-27T22:12:53.032Z,26.60
2018-07-27T22:15:24.032Z,26.60
2018-07-27T22:17:52.528Z,26.50
2018-07-27T22:20:22.428Z,26.40
2018-07-27T22:22:50.860Z,26.40
2018-07-27T22:25:19.306Z,26.40
2018-07-27T22:27:48.592Z,26.40
2018-07-27T22:30:17.018Z,26.30
2018-07-27T22:32:45.411Z,26.30
2018-07-27T22:35:13.794Z,26.30
2018-07-27T22:37:42.192Z,26.30
2018-07-27T22:40:11.596Z,26.20
2018-07-27T22:42:40.268Z,26.20
2018-07-27T22:45:09.590Z,26.10
2018-07-27T22:47:38.018Z,26.00
2018-07-27T22:50:06.972Z,26.00
2018-07-27T22:52:41.047Z,26.00
2018-07-27T22:57:42.523Z,26.00
2018-07-27T23:00:13.421Z,25.90
2018-07-27T23:02:42.169Z,25.90
2018-07-27T23:05:10.932Z,25.90
2018-07-27T23:07:39.275Z,25.90
2018-07-27T23:10:08.769Z,25.90
2018-07-27T23:12:37.338Z,25.80
2018-07-27T23:15:07.649Z,25.80
2018-07-27T23:17:36.092Z,25.80
2018-07-27T23:20:07.556Z,25.80
2018-07-27T23:22:35.972Z,25.70
2018-07-27T23:25:05.133Z,25.70
2018-07-27T23:27:33.451Z,25.60
2018-07-27T23:30:01.836Z,25.60
2018-07-27T23:32:30.257Z,25.60
2018-07-27T23:34:58.630Z,25.50
2018-07-27T23:37:27.036Z,25.50
2018-07-27T23:39:55.456Z,25.50
2018-07-27T23:42:24.897Z,25.50
2018-07-27T23:44:53.334Z,25.50
2018-07-27T23:47:21.692Z,25.50
2018-07-27T23:49:50.009Z,25.50
2018-07-27T23:52:18.407Z,25.50
2018-07-27T23:54:46.735Z,25.50
2018-07-27T23:57:15.159Z,25.50
2018-07-27T23:59:43.539Z,25.40
